Main page
METAR-TAF:

METAR-TAF

Airports :

Orange County Airport

Montgomery, New York, United States

latitude: 41-30-33N, longitude: 074-15-54W, elevation: 364 ft

Current weather observation

The report was made 27 minutes ago, at 17:54 UTC
Wind 15 mph from the West with gusts up to 29 mph
Temperature 36°F
Humidity 51%
Pressure 29.51 in. Hg
Visibility: 10 miles
Broken clouds at a height of 4700 ft
Overcast at a height of 5500 ft

METAR: KMGJ 271754Z AUTO 28013G25KT 10SM BKN047 OVC055 02/M07 A2951 RMK AO2 PK WND 30035/1708 SLP994 60003 T00171067 10039 20000 50025

Time: 13:21 (18:21 UTC)


TAF: missing

Weather observations and forecasts of more than 4000 airports (METAR and TAF reports).

The available stations are represented by yellow and red dots on the map.

Hover mouse over dot to see the name of the station.

Then click to see weather observations and forecasts.

To change the map : click on the green buttons with a black cross to zoom in, on the green button with a dash to zoom out, or on the green arrows for adjacent maps.


METAR-TAF: